createdAt,value
2018-09-01T00:01:27.510Z,22.65
2018-09-01T00:03:56.665Z,22.30
2018-09-01T00:06:25.559Z,21.50
2018-09-01T00:08:54.120Z,21.33
2018-09-01T00:11:24.042Z,20.30
2018-09-01T00:13:52.948Z,20.90
2018-09-01T00:16:22.424Z,19.30
2018-09-01T00:18:53.830Z,21.40
2018-09-01T00:21:23.186Z,21.43
2018-09-01T00:23:52.094Z,20.93
2018-09-01T00:26:21.644Z,20.90
2018-09-01T00:28:50.680Z,19.60
2018-09-01T00:31:20.011Z,20.70
2018-09-01T00:33:48.955Z,19.73
2018-09-01T00:36:17.864Z,19.00
2018-09-01T00:38:52.071Z,19.50
2018-09-01T00:41:21.673Z,20.80
2018-09-01T00:43:52.700Z,19.92
2018-09-01T00:46:21.427Z,19.10
2018-09-01T00:48:51.251Z,19.70
2018-09-01T00:51:21.382Z,19.07
2018-09-01T00:53:51.596Z,20.50
2018-09-01T00:56:20.515Z,19.90
2018-09-01T00:58:49.245Z,19.70
2018-09-01T01:01:18.243Z,20.93
2018-09-01T01:03:48.069Z,21.23
2018-09-01T01:06:16.730Z,21.43
2018-09-01T01:08:47.328Z,21.33
2018-09-01T01:11:17.777Z,24.23
2018-09-01T01:13:46.724Z,22.67
2018-09-01T01:16:15.955Z,23.30
2018-09-01T01:18:44.798Z,26.57
2018-09-01T01:21:13.770Z,22.40
2018-09-01T01:23:42.417Z,25.33
2018-09-01T01:26:11.181Z,25.40
2018-09-01T01:28:40.631Z,27.13
2018-09-01T01:31:09.349Z,25.30
2018-09-01T01:33:38.161Z,24.50
2018-09-01T01:36:07.055Z,25.97
2018-09-01T01:38:35.735Z,25.27
2018-09-01T01:41:04.415Z,25.60
2018-09-01T01:43:33.020Z,25.33
2018-09-01T01:46:02.539Z,24.87
2018-09-01T01:48:31.151Z,25.13
2018-09-01T01:50:59.953Z,26.40
2018-09-01T01:53:29.718Z,26.50
2018-09-01T01:55:58.400Z,26.07
2018-09-01T01:58:27.572Z,23.42
2018-09-01T02:00:56.295Z,24.30
2018-09-01T02:03:25.245Z,25.17
2018-09-01T02:05:53.810Z,25.57
2018-09-01T02:08:23.480Z,26.20
2018-09-01T02:10:53.210Z,24.80
2018-09-01T02:13:24.069Z,29.40
2018-09-01T02:15:52.925Z,27.97
2018-09-01T02:18:22.344Z,28.30
2018-09-01T02:20:51.050Z,28.30
2018-09-01T02:23:20.239Z,27.10
2018-09-01T02:25:48.980Z,25.57
2018-09-01T02:28:17.726Z,27.87
2018-09-01T02:30:46.374Z,28.60
2018-09-01T02:33:15.222Z,28.77
2018-09-01T02:35:46.134Z,28.40
2018-09-01T02:38:14.932Z,28.33
2018-09-01T02:40:44.280Z,28.73
2018-09-01T02:43:13.054Z,28.02
2018-09-01T02:45:42.774Z,26.37
2018-09-01T02:48:12.474Z,28.73
2018-09-01T02:50:41.781Z,27.70
2018-09-01T02:53:11.229Z,29.67
2018-09-01T02:55:40.718Z,27.50
2018-09-01T02:58:09.328Z,30.13
2018-09-01T03:00:38.977Z,28.40
2018-09-01T03:03:08.207Z,28.17
2018-09-01T03:05:37.037Z,32.40
2018-09-01T03:08:05.822Z,32.00
2018-09-01T03:10:34.960Z,30.57
2018-09-01T03:13:03.820Z,31.70
2018-09-01T03:15:32.536Z,30.80
2018-09-01T03:18:01.555Z,31.33
2018-09-01T03:20:30.231Z,30.60
2018-09-01T03:22:59.025Z,30.23
2018-09-01T03:25:28.500Z,34.27
2018-09-01T03:27:58.397Z,31.13
2018-09-01T03:30:27.132Z,30.30
2018-09-01T03:32:55.842Z,30.02
2018-09-01T03:35:24.465Z,30.50
2018-09-01T03:37:53.081Z,31.23
2018-09-01T03:40:22.710Z,29.60
2018-09-01T03:42:51.302Z,28.20
2018-09-01T03:45:20.416Z,27.37
2018-09-01T03:47:51.286Z,28.80
2018-09-01T03:50:20.600Z,28.70
2018-09-01T03:52:50.065Z,29.03
2018-09-01T03:55:19.531Z,29.07
2018-09-01T03:57:48.286Z,27.03
2018-09-01T04:00:17.366Z,27.10
2018-09-01T04:02:46.512Z,25.80
2018-09-01T04:05:15.906Z,27.60
2018-09-01T04:07:44.905Z,25.63
2018-09-01T04:10:13.482Z,27.50
2018-09-01T04:12:44.000Z,26.83
2018-09-01T04:15:14.103Z,26.37
2018-09-01T04:17:43.867Z,24.93
2018-09-01T04:20:12.446Z,26.10
2018-09-01T04:22:41.456Z,25.00
2018-09-01T04:25:10.527Z,24.27
2018-09-01T04:27:39.455Z,22.80
2018-09-01T04:30:09.436Z,24.07
2018-09-01T04:32:38.572Z,22.22
2018-09-01T04:35:07.345Z,23.70
2018-09-01T04:37:37.046Z,21.20
2018-09-01T04:40:06.210Z,23.57
2018-09-01T04:42:35.815Z,22.27
2018-09-01T04:45:04.568Z,23.17
2018-09-01T04:47:33.561Z,21.97
2018-09-01T04:50:02.801Z,22.70
2018-09-01T04:52:32.126Z,23.35
2018-09-01T04:55:01.333Z,21.57
2018-09-01T04:57:30.322Z,23.65
2018-09-01T04:59:59.095Z,20.80
2018-09-01T05:02:29.243Z,19.97
2018-09-01T05:04:58.041Z,21.57
2018-09-01T05:07:26.713Z,19.80
2018-09-01T05:09:55.681Z,20.07
2018-09-01T05:12:24.508Z,20.93
2018-09-01T05:14:53.942Z,19.77
2018-09-01T05:17:22.653Z,22.10
2018-09-01T05:19:51.446Z,19.07
2018-09-01T05:22:20.751Z,20.27
2018-09-01T05:24:49.607Z,20.60
2018-09-01T05:27:18.882Z,18.33
2018-09-01T05:29:48.083Z,18.57
2018-09-01T05:32:17.602Z,19.32
2018-09-01T05:34:46.227Z,19.90
2018-09-01T05:37:16.567Z,19.57
2018-09-01T05:39:45.356Z,20.50
2018-09-01T05:42:14.473Z,20.33
2018-09-01T05:44:43.787Z,18.75
2018-09-01T05:47:12.898Z,18.37
2018-09-01T05:49:42.782Z,18.53
2018-09-01T05:52:14.300Z,17.60
2018-09-01T05:54:44.876Z,16.13
2018-09-01T05:57:13.754Z,16.73
2018-09-01T05:59:42.882Z,16.83
2018-09-01T06:02:12.222Z,16.03
2018-09-01T06:04:40.964Z,16.10
2018-09-01T06:07:09.846Z,16.30
2018-09-01T06:09:39.084Z,15.83
2018-09-01T06:12:08.066Z,15.75
2018-09-01T06:14:37.196Z,13.83
2018-09-01T06:17:06.686Z,14.90
2018-09-01T06:19:36.453Z,14.53
2018-09-01T06:22:05.998Z,14.60
2018-09-01T06:25:59.198Z,15.20
2018-09-01T06:29:05.476Z,13.97
2018-09-01T06:31:35.125Z,13.25
2018-09-01T06:34:03.893Z,14.33
2018-09-01T06:36:32.624Z,14.10
2018-09-01T06:39:01.293Z,13.60
2018-09-01T06:41:31.757Z,13.23
2018-09-01T06:44:01.071Z,13.27
2018-09-01T06:46:29.782Z,13.07
2018-09-01T06:48:59.083Z,14.00
2018-09-01T06:51:28.369Z,12.30
2018-09-01T06:53:57.041Z,12.90
2018-09-01T06:56:25.753Z,11.97
2018-09-01T06:58:54.837Z,11.20
2018-09-01T07:01:23.482Z,12.67
2018-09-01T07:03:53.648Z,11.53
2018-09-01T07:06:22.913Z,10.90
2018-09-01T07:08:51.856Z,11.57
2018-09-01T07:11:20.742Z,14.10
2018-09-01T07:13:49.764Z,11.80
2018-09-01T07:16:18.841Z,11.60
2018-09-01T07:18:47.597Z,11.60
2018-09-01T07:21:17.716Z,11.00
2018-09-01T07:23:46.561Z,10.50
2018-09-01T07:26:15.552Z,9.00
2018-09-01T07:28:44.493Z,11.23
2018-09-01T07:31:13.424Z,9.07
2018-09-01T07:33:42.113Z,9.33
2018-09-01T07:36:10.837Z,9.93
2018-09-01T07:38:39.624Z,9.07
2018-09-01T07:41:08.493Z,9.13
2018-09-01T07:43:38.240Z,8.23
2018-09-01T07:46:07.321Z,9.00
2018-09-01T07:48:36.012Z,8.60
2018-09-01T07:51:06.441Z,8.33
2018-09-01T07:53:35.024Z,8.70
2018-09-01T07:56:04.281Z,8.00
2018-09-01T07:58:32.937Z,7.70
2018-09-01T08:01:01.723Z,7.80
2018-09-01T08:03:30.663Z,7.47
2018-09-01T08:05:59.241Z,7.70
2018-09-01T08:08:29.338Z,9.43
2018-09-01T08:10:58.448Z,9.13
2018-09-01T08:13:30.887Z,8.20
2018-09-01T08:16:00.527Z,14.90
2018-09-01T08:18:30.097Z,12.97
2018-09-01T08:20:59.584Z,8.43
2018-09-01T08:23:28.234Z,7.40
2018-09-01T08:25:56.927Z,6.97
2018-09-01T08:28:26.028Z,7.80
2018-09-01T08:30:54.943Z,8.93
2018-09-01T08:33:23.629Z,7.90
2018-09-01T08:35:53.752Z,7.17
2018-09-01T08:38:22.948Z,7.10
2018-09-01T08:40:53.138Z,7.00
2018-09-01T08:43:22.055Z,7.78
2018-09-01T08:45:51.622Z,7.50
2018-09-01T08:48:22.754Z,7.20
2018-09-01T08:50:51.833Z,7.07
2018-09-01T08:53:20.492Z,7.73
2018-09-01T08:55:49.472Z,7.50
2018-09-01T08:58:18.579Z,8.17
2018-09-01T09:00:47.439Z,7.73
2018-09-01T09:03:16.253Z,7.00
2018-09-01T09:05:45.199Z,17.20
2018-09-01T09:08:13.922Z,16.03
2018-09-01T09:10:42.794Z,9.47
2018-09-01T09:13:12.433Z,7.23
2018-09-01T09:15:41.268Z,7.90
2018-09-01T09:18:10.408Z,7.30
2018-09-01T09:20:39.893Z,7.87
2018-09-01T09:23:08.904Z,6.60
2018-09-01T09:25:38.202Z,7.70
2018-09-01T09:28:07.673Z,6.30
2018-09-01T09:30:36.583Z,6.30
2018-09-01T09:33:06.458Z,6.10
2018-09-01T09:35:35.392Z,5.90
2018-09-01T09:38:04.438Z,6.30
2018-09-01T09:40:33.401Z,6.40
2018-09-01T09:43:02.969Z,8.37
2018-09-01T09:45:31.786Z,5.67
2018-09-01T09:48:01.207Z,6.40
2018-09-01T09:50:30.034Z,6.97
2018-09-01T09:53:00.516Z,6.30
2018-09-01T09:55:29.763Z,6.20
2018-09-01T09:57:58.534Z,6.25
2018-09-01T10:01:05.924Z,6.33
2018-09-01T10:03:36.497Z,6.10
2018-09-01T10:06:05.918Z,5.70
2018-09-01T10:08:34.688Z,5.70
2018-09-01T10:11:04.133Z,5.60
2018-09-01T10:13:33.363Z,5.60
2018-09-01T10:16:02.136Z,6.60
2018-09-01T10:18:32.383Z,5.73
2018-09-01T10:21:01.153Z,6.20
2018-09-01T10:23:31.309Z,5.00
2018-09-01T10:26:00.641Z,6.23
2018-09-01T10:28:29.649Z,8.18
2018-09-01T10:30:58.585Z,5.67
2018-09-01T10:33:28.033Z,5.60
2018-09-01T10:35:57.253Z,4.83
2018-09-01T10:38:26.844Z,4.77
2018-09-01T10:40:55.703Z,4.17
2018-09-01T10:43:25.633Z,5.13
2018-09-01T10:45:55.194Z,5.15
2018-09-01T10:48:24.126Z,4.93
2018-09-01T10:50:52.882Z,4.90
2018-09-01T10:53:21.923Z,5.87
2018-09-01T10:55:51.092Z,5.20
2018-09-01T10:58:20.013Z,4.70
2018-09-01T11:00:48.757Z,5.17
2018-09-01T11:03:17.876Z,4.40
2018-09-01T11:05:47.266Z,5.37
2018-09-01T11:08:16.162Z,4.33
2018-09-01T11:10:46.211Z,5.43
2018-09-01T11:13:14.998Z,4.67
2018-09-01T11:15:43.935Z,4.40
2018-09-01T11:18:13.378Z,5.27
2018-09-01T11:20:42.051Z,5.03
2018-09-01T11:23:10.838Z,3.80
2018-09-01T11:25:41.335Z,5.00
2018-09-01T11:28:10.358Z,4.90
2018-09-01T11:30:39.228Z,5.30
2018-09-01T11:33:08.423Z,4.87
2018-09-01T11:35:37.682Z,5.60
2018-09-01T11:38:06.409Z,4.40
2018-09-01T11:40:35.205Z,4.00
2018-09-01T11:43:04.518Z,4.67
2018-09-01T11:45:33.608Z,4.30
2018-09-01T11:48:02.285Z,3.97
2018-09-01T11:50:31.285Z,4.40
2018-09-01T11:53:00.037Z,3.73
2018-09-01T11:55:28.800Z,4.63
2018-09-01T11:57:57.690Z,4.12
2018-09-01T12:00:26.963Z,4.80
2018-09-01T12:02:56.259Z,3.60
2018-09-01T12:05:25.393Z,4.27
2018-09-01T12:07:54.184Z,4.47
2018-09-01T12:10:23.864Z,3.90
2018-09-01T12:12:53.046Z,4.62
2018-09-01T12:15:23.215Z,3.90
2018-09-01T12:17:51.943Z,4.20
2018-09-01T12:20:20.888Z,3.83
2018-09-01T12:22:50.010Z,4.00
2018-09-01T12:25:18.914Z,3.40
2018-09-01T12:27:48.295Z,4.40
2018-09-01T12:30:17.798Z,4.00
2018-09-01T12:32:46.836Z,3.70
2018-09-01T12:35:15.736Z,3.22
2018-09-01T12:37:44.633Z,3.30
2018-09-01T12:40:14.464Z,4.20
2018-09-01T12:42:44.889Z,3.63
2018-09-01T12:45:13.944Z,2.90
2018-09-01T12:47:42.658Z,3.17
2018-09-01T12:50:11.599Z,3.13
2018-09-01T12:52:40.738Z,3.27
2018-09-01T12:55:09.442Z,2.37
2018-09-01T12:57:38.199Z,3.17
2018-09-01T13:00:07.347Z,2.67
2018-09-01T13:02:36.594Z,2.33
2018-09-01T13:05:05.759Z,1.80
2018-09-01T13:07:34.740Z,1.80
2018-09-01T13:10:03.557Z,2.10
2018-09-01T13:12:32.339Z,1.80
2018-09-01T13:15:01.333Z,2.37
2018-09-01T13:17:31.233Z,2.63
2018-09-01T13:20:00.280Z,2.10
2018-09-01T13:22:30.320Z,2.10
2018-09-01T13:24:59.356Z,2.40
2018-09-01T13:27:28.112Z,1.80
2018-09-01T13:29:56.958Z,2.35
2018-09-01T13:32:26.368Z,2.50
2018-09-01T13:34:55.488Z,2.20
2018-09-01T13:37:24.385Z,2.10
2018-09-01T13:39:53.158Z,1.93
2018-09-01T13:42:22.140Z,2.50
2018-09-01T13:44:52.367Z,2.40
2018-09-01T13:47:21.118Z,1.70
2018-09-01T13:49:50.024Z,2.00
2018-09-01T13:52:18.974Z,2.33
2018-09-01T13:54:47.963Z,1.70
2018-09-01T13:57:16.720Z,2.80
2018-09-01T13:59:45.578Z,2.00
2018-09-01T14:02:14.920Z,2.00
2018-09-01T14:04:43.728Z,1.73
2018-09-01T14:07:12.490Z,2.10
2018-09-01T14:09:41.219Z,2.60
2018-09-01T14:12:10.488Z,2.40
2018-09-01T14:14:44.865Z,2.27
2018-09-01T14:17:14.748Z,2.00
2018-09-01T14:19:44.362Z,2.23
2018-09-01T14:22:13.733Z,2.63
2018-09-01T14:24:42.689Z,7.78
2018-09-01T14:27:12.068Z,6.90
2018-09-01T14:29:40.674Z,2.53
2018-09-01T14:32:10.116Z,2.47
2018-09-01T14:34:38.944Z,2.40
2018-09-01T14:37:09.368Z,1.80
2018-09-01T14:39:38.195Z,2.17
2018-09-01T14:42:08.533Z,2.13
2018-09-01T14:44:37.539Z,1.83
2018-09-01T14:47:06.472Z,7.97
2018-09-01T14:49:35.192Z,5.20
2018-09-01T14:52:05.219Z,2.23
2018-09-01T14:54:34.421Z,2.00
2018-09-01T14:57:03.310Z,1.77
2018-09-01T14:59:32.991Z,1.87
2018-09-01T15:02:01.988Z,1.95
2018-09-01T15:04:31.040Z,1.87
2018-09-01T15:06:59.905Z,1.90
2018-09-01T15:09:28.850Z,2.63
2018-09-01T15:11:58.865Z,2.50
2018-09-01T15:14:27.978Z,2.00
2018-09-01T15:16:56.730Z,1.70
2018-09-01T15:19:25.808Z,2.10
2018-09-01T15:21:54.915Z,1.90
2018-09-01T15:24:24.189Z,1.87
2018-09-01T15:26:54.480Z,2.03
2018-09-01T15:29:23.523Z,1.57
2018-09-01T15:31:52.770Z,2.07
2018-09-01T15:34:22.492Z,2.02
2018-09-01T15:36:52.305Z,2.07
2018-09-01T15:39:22.654Z,1.40
2018-09-01T15:41:51.595Z,1.93
2018-09-01T15:44:19.960Z,1.50
2018-09-01T15:46:48.869Z,1.77
2018-09-01T15:49:18.176Z,1.73
2018-09-01T15:51:47.163Z,1.63
2018-09-01T15:54:16.451Z,1.93
2018-09-01T15:56:45.199Z,2.10
2018-09-01T15:59:14.176Z,1.63
2018-09-01T16:01:43.445Z,1.77
2018-09-01T16:04:13.800Z,2.30
2018-09-01T16:06:42.966Z,1.77
2018-09-01T16:09:12.147Z,1.83
2018-09-01T16:11:41.491Z,1.85
2018-09-01T16:14:10.110Z,1.90
2018-09-01T16:16:38.749Z,1.80
2018-09-01T16:19:07.954Z,1.70
2018-09-01T16:21:37.336Z,1.80
2018-09-01T16:24:06.379Z,1.57
2018-09-01T16:26:35.763Z,2.05
2018-09-01T16:29:05.090Z,2.63
2018-09-01T16:31:36.040Z,1.77
2018-09-01T16:34:04.887Z,1.70
2018-09-01T16:36:34.911Z,2.77
2018-09-01T16:39:05.549Z,1.67
2018-09-01T16:41:37.919Z,2.00
2018-09-01T16:44:08.139Z,2.53
2018-09-01T16:46:38.036Z,2.17
2018-09-01T16:49:07.937Z,2.00
2018-09-01T16:51:38.469Z,2.30
2018-09-01T16:54:07.016Z,1.80
2018-09-01T16:56:36.137Z,1.83
2018-09-01T16:59:06.721Z,1.55
2018-09-01T17:01:35.437Z,2.10
2018-09-01T17:04:04.962Z,2.47
2018-09-01T17:06:33.879Z,1.50
2018-09-01T17:09:03.816Z,1.80
2018-09-01T17:11:34.391Z,1.90
2018-09-01T17:14:02.984Z,1.80
2018-09-01T17:16:31.695Z,2.08
2018-09-01T17:19:01.268Z,1.97
2018-09-01T17:21:30.137Z,1.63
2018-09-01T17:23:59.099Z,1.90
2018-09-01T17:26:31.242Z,1.97
2018-09-01T17:29:00.917Z,1.70
2018-09-01T17:31:30.135Z,1.40
2018-09-01T17:33:59.628Z,1.90
2018-09-01T17:36:28.506Z,2.20
2018-09-01T17:38:58.208Z,1.73
2018-09-01T17:41:27.926Z,2.13
2018-09-01T17:43:57.133Z,2.60
2018-09-01T17:46:26.319Z,1.80
2018-09-01T17:48:55.761Z,2.15
2018-09-01T17:51:26.012Z,1.97
2018-09-01T17:53:55.622Z,2.37
2018-09-01T17:56:25.358Z,2.30
2018-09-01T17:58:55.355Z,1.90
2018-09-01T18:01:26.497Z,1.90
2018-09-01T18:03:55.987Z,2.40
2018-09-01T18:06:26.031Z,2.20
2018-09-01T18:08:55.200Z,2.80
2018-09-01T18:11:23.786Z,2.17
2018-09-01T18:13:53.540Z,2.20
2018-09-01T18:16:22.398Z,2.85
2018-09-01T18:18:51.220Z,2.73
2018-09-01T18:21:20.566Z,2.47
2018-09-01T18:23:49.327Z,2.73
2018-09-01T18:26:18.914Z,3.30
2018-09-01T18:28:47.854Z,2.17
2018-09-01T18:31:16.842Z,2.50
2018-09-01T18:33:45.521Z,2.10
2018-09-01T18:36:14.731Z,2.50
2018-09-01T18:38:43.939Z,2.73
2018-09-01T18:41:13.110Z,2.77
2018-09-01T18:43:42.080Z,3.00
2018-09-01T18:46:11.555Z,2.90
2018-09-01T18:48:40.667Z,3.17
2018-09-01T18:51:09.397Z,3.87
2018-09-01T18:53:38.361Z,3.50
2018-09-01T18:56:07.417Z,3.72
2018-09-01T18:58:37.306Z,3.70
2018-09-01T19:01:07.223Z,2.77
2018-09-01T19:03:37.436Z,2.70
2018-09-01T19:06:07.340Z,3.17
2018-09-01T19:08:36.533Z,2.73
2018-09-01T19:11:05.395Z,2.43
2018-09-01T19:13:35.091Z,2.37
2018-09-01T19:16:03.876Z,2.60
2018-09-01T19:18:33.765Z,2.63
2018-09-01T19:21:02.844Z,2.40
2018-09-01T19:23:31.715Z,2.60
2018-09-01T19:26:00.421Z,2.07
2018-09-01T19:28:29.359Z,2.60
2018-09-01T19:30:58.357Z,2.60
2018-09-01T19:33:28.442Z,2.70
2018-09-01T19:35:59.475Z,3.10
2018-09-01T19:38:28.225Z,2.93
2018-09-01T19:40:57.039Z,2.72
2018-09-01T19:43:27.061Z,2.90
2018-09-01T19:45:56.874Z,2.70
2018-09-01T19:48:26.257Z,3.03
2018-09-01T19:50:55.240Z,2.63
2018-09-01T19:53:24.212Z,3.27
2018-09-01T19:55:53.196Z,3.37
2018-09-01T19:58:22.107Z,2.83
2018-09-01T20:00:51.216Z,3.43
2018-09-01T20:03:20.366Z,2.77
2018-09-01T20:05:49.307Z,2.67
2018-09-01T20:08:19.027Z,3.07
2018-09-01T20:10:48.430Z,2.50
2018-09-01T20:13:17.632Z,2.87
2018-09-01T20:15:46.791Z,3.20
2018-09-01T20:18:17.111Z,2.95
2018-09-01T20:20:46.390Z,3.10
2018-09-01T20:23:16.399Z,2.23
2018-09-01T20:25:46.702Z,2.77
2018-09-01T20:28:15.895Z,2.40
2018-09-01T20:30:46.677Z,2.20
2018-09-01T20:33:16.556Z,2.63
2018-09-01T20:35:51.132Z,2.60
2018-09-01T20:38:20.547Z,3.33
2018-09-01T20:40:50.882Z,2.90
2018-09-01T20:43:19.668Z,2.27
2018-09-01T20:45:48.663Z,2.93
2018-09-01T20:48:17.585Z,3.70
2018-09-01T20:50:46.417Z,3.00
2018-09-01T20:53:15.151Z,2.50
2018-09-01T20:55:43.742Z,2.67
2018-09-01T20:58:12.634Z,2.43
2018-09-01T21:00:41.628Z,2.22
2018-09-01T21:03:10.512Z,2.50
2018-09-01T21:05:39.744Z,2.67
2018-09-01T21:08:08.816Z,3.33
2018-09-01T21:10:39.810Z,3.22
2018-09-01T21:13:09.910Z,4.03
2018-09-01T21:15:40.581Z,3.17
2018-09-01T21:18:09.366Z,2.67
2018-09-01T21:20:38.172Z,3.40
2018-09-01T21:23:07.012Z,2.27
2018-09-01T21:25:35.682Z,2.80
2018-09-01T21:28:04.334Z,3.47
2018-09-01T21:30:33.536Z,2.50
2018-09-01T21:33:03.053Z,3.03
2018-09-01T21:35:31.978Z,2.67
2018-09-01T21:38:00.604Z,3.27
2018-09-01T21:40:30.041Z,2.60
2018-09-01T21:42:59.013Z,2.95
2018-09-01T21:45:28.252Z,3.00
2018-09-01T21:47:57.507Z,2.77
2018-09-01T21:50:27.087Z,2.73
2018-09-01T21:52:55.641Z,3.05
2018-09-01T21:55:25.031Z,2.80
2018-09-01T21:57:54.363Z,3.60
2018-09-01T22:00:24.513Z,3.00
2018-09-01T22:02:53.491Z,3.43
2018-09-01T22:05:25.070Z,3.30
2018-09-01T22:07:53.951Z,2.60
2018-09-01T22:10:24.499Z,2.47
2018-09-01T22:12:53.233Z,2.67
2018-09-01T22:15:22.063Z,2.87
2018-09-01T22:17:50.708Z,3.40
2018-09-01T22:20:20.227Z,3.53
2018-09-01T22:22:50.127Z,2.97
2018-09-01T22:25:19.702Z,3.07
2018-09-01T22:27:48.901Z,4.30
2018-09-01T22:30:18.130Z,2.72
2018-09-01T22:32:46.904Z,3.10
2018-09-01T22:35:15.627Z,3.30
2018-09-01T22:37:44.431Z,2.73
2018-09-01T22:40:13.121Z,3.50
2018-09-01T22:42:42.370Z,3.05
2018-09-01T22:45:12.597Z,3.00
2018-09-01T22:47:41.428Z,4.30
2018-09-01T22:50:11.028Z,3.30
2018-09-01T22:52:39.870Z,2.90
2018-09-01T22:55:08.578Z,3.20
2018-09-01T22:57:37.252Z,3.13
2018-09-01T23:00:06.182Z,3.30
2018-09-01T23:02:35.061Z,3.20
2018-09-01T23:05:03.762Z,2.87
2018-09-01T23:07:32.530Z,2.93
2018-09-01T23:10:01.747Z,3.67
2018-09-01T23:12:30.715Z,3.80
2018-09-01T23:14:59.494Z,2.93
2018-09-01T23:17:28.369Z,3.17
2018-09-01T23:19:57.291Z,3.22
2018-09-01T23:22:25.926Z,3.10
2018-09-01T23:24:54.866Z,3.67
2018-09-01T23:27:23.632Z,3.20
2018-09-01T23:29:52.628Z,3.30
2018-09-01T23:32:22.762Z,3.70
2018-09-01T23:34:51.511Z,3.20
2018-09-01T23:37:21.071Z,3.30
2018-09-01T23:39:50.142Z,3.10
2018-09-01T23:42:19.694Z,3.00
2018-09-01T23:44:48.898Z,3.20
2018-09-01T23:47:18.276Z,2.40
2018-09-01T23:49:47.472Z,3.20
2018-09-01T23:52:16.367Z,3.17
2018-09-01T23:54:44.998Z,2.90
2018-09-01T23:57:14.101Z,2.90
2018-09-01T23:59:43.287Z,3.17
